sensor_id;sensor_type;location;lat;lon;timestamp;P1;durP1;ratioP1;P2;durP2;ratioP2
75787;SDS011;64406;50.024;14.492;2023-06-24T00:02:08;2.17;;;1.98;;
75787;SDS011;64406;50.024;14.492;2023-06-24T00:04:34;2.92;;;1.83;;
75787;SDS011;64406;50.024;14.492;2023-06-24T00:07:00;4.03;;;2.45;;
75787;SDS011;64406;50.024;14.492;2023-06-24T00:09:26;3.10;;;1.90;;
75787;SDS011;64406;50.024;14.492;2023-06-24T00:11:55;2.42;;;2.08;;
75787;SDS011;64406;50.024;14.492;2023-06-24T00:14:24;2.65;;;2.03;;
75787;SDS011;64406;50.024;14.492;2023-06-24T00:16:54;2.55;;;1.75;;
75787;SDS011;64406;50.024;14.492;2023-06-24T00:19:24;3.80;;;2.25;;
75787;SDS011;64406;50.024;14.492;2023-06-24T00:21:52;5.40;;;2.65;;
75787;SDS011;64406;50.024;14.492;2023-06-24T00:24:21;2.55;;;2.22;;
75787;SDS011;64406;50.024;14.492;2023-06-24T00:26:54;5.77;;;2.87;;
75787;SDS011;64406;50.024;14.492;2023-06-24T00:29:20;3.75;;;2.80;;
75787;SDS011;64406;50.024;14.492;2023-06-24T00:31:47;4.70;;;2.53;;
75787;SDS011;64406;50.024;14.492;2023-06-24T00:34:13;3.85;;;2.90;;
75787;SDS011;64406;50.024;14.492;2023-06-24T00:36:39;5.55;;;3.42;;
75787;SDS011;64406;50.024;14.492;2023-06-24T00:39:05;4.10;;;3.45;;
75787;SDS011;64406;50.024;14.492;2023-06-24T00:41:32;4.47;;;3.28;;
75787;SDS011;64406;50.024;14.492;2023-06-24T00:43:59;4.32;;;3.15;;
75787;SDS011;64406;50.024;14.492;2023-06-24T00:46:26;3.55;;;3.20;;
75787;SDS011;64406;50.024;14.492;2023-06-24T00:48:55;5.10;;;3.40;;
75787;SDS011;64406;50.024;14.492;2023-06-24T00:51:22;4.22;;;3.25;;
75787;SDS011;64406;50.024;14.492;2023-06-24T00:53:54;5.05;;;3.00;;
75787;SDS011;64406;50.024;14.492;2023-06-24T00:56:21;5.93;;;3.67;;
75787;SDS011;64406;50.024;14.492;2023-06-24T00:58:50;4.43;;;3.38;;
75787;SDS011;64406;50.024;14.492;2023-06-24T01:01:18;4.97;;;3.50;;
75787;SDS011;64406;50.024;14.492;2023-06-24T01:03:44;6.45;;;4.00;;
75787;SDS011;64406;50.024;14.492;2023-06-24T01:06:10;5.25;;;3.50;;
75787;SDS011;64406;50.024;14.492;2023-06-24T01:08:38;5.13;;;3.63;;
75787;SDS011;64406;50.024;14.492;2023-06-24T01:11:04;5.65;;;3.20;;
75787;SDS011;64406;50.024;14.492;2023-06-24T01:13:29;6.18;;;3.63;;
75787;SDS011;64406;50.024;14.492;2023-06-24T01:15:55;4.70;;;3.20;;
75787;SDS011;64406;50.024;14.492;2023-06-24T01:18:37;4.95;;;3.25;;
75787;SDS011;64406;50.024;14.492;2023-06-24T01:31:59;3.92;;;3.22;;
75787;SDS011;64406;50.024;14.492;2023-06-24T01:34:43;4.75;;;3.35;;
75787;SDS011;64406;50.024;14.492;2023-06-24T01:42:25;3.50;;;2.65;;
75787;SDS011;64406;50.024;14.492;2023-06-24T01:44:54;3.78;;;2.80;;
75787;SDS011;64406;50.024;14.492;2023-06-24T01:47:23;6.05;;;3.50;;
75787;SDS011;64406;50.024;14.492;2023-06-24T01:49:52;6.80;;;2.78;;
75787;SDS011;64406;50.024;14.492;2023-06-24T01:52:22;4.13;;;3.03;;
75787;SDS011;64406;50.024;14.492;2023-06-24T01:54:49;4.72;;;3.53;;
75787;SDS011;64406;50.024;14.492;2023-06-24T01:57:17;5.05;;;3.45;;
75787;SDS011;64406;50.024;14.492;2023-06-24T01:59:44;5.00;;;3.20;;
75787;SDS011;64406;50.024;14.492;2023-06-24T02:02:12;5.05;;;3.58;;
75787;SDS011;64406;50.024;14.492;2023-06-24T02:04:38;4.15;;;3.30;;
75787;SDS011;64406;50.024;14.492;2023-06-24T02:07:05;4.68;;;3.22;;
75787;SDS011;64406;50.024;14.492;2023-06-24T02:09:33;5.85;;;3.40;;
75787;SDS011;64406;50.024;14.492;2023-06-24T02:12:01;4.95;;;3.35;;
75787;SDS011;64406;50.024;14.492;2023-06-24T02:14:28;4.45;;;3.22;;
75787;SDS011;64406;50.024;14.492;2023-06-24T02:16:56;4.75;;;3.75;;
75787;SDS011;64406;50.024;14.492;2023-06-24T02:19:25;4.82;;;3.22;;
75787;SDS011;64406;50.024;14.492;2023-06-24T02:21:54;3.58;;;2.95;;
75787;SDS011;64406;50.024;14.492;2023-06-24T02:24:21;5.40;;;4.35;;
75787;SDS011;64406;50.024;14.492;2023-06-24T02:26:48;5.40;;;3.15;;
75787;SDS011;64406;50.024;14.492;2023-06-24T02:29:15;4.47;;;3.45;;
75787;SDS011;64406;50.024;14.492;2023-06-24T02:31:42;4.40;;;3.38;;
75787;SDS011;64406;50.024;14.492;2023-06-24T02:34:08;4.68;;;3.65;;
75787;SDS011;64406;50.024;14.492;2023-06-24T02:36:34;5.13;;;3.50;;
75787;SDS011;64406;50.024;14.492;2023-06-24T02:39:00;4.80;;;3.58;;
75787;SDS011;64406;50.024;14.492;2023-06-24T02:41:26;5.07;;;3.72;;
75787;SDS011;64406;50.024;14.492;2023-06-24T02:43:52;4.22;;;3.53;;
75787;SDS011;64406;50.024;14.492;2023-06-24T02:46:17;5.03;;;3.95;;
75787;SDS011;64406;50.024;14.492;2023-06-24T02:48:45;6.38;;;4.20;;
75787;SDS011;64406;50.024;14.492;2023-06-24T02:51:13;4.85;;;3.78;;
75787;SDS011;64406;50.024;14.492;2023-06-24T02:53:39;4.90;;;3.83;;
75787;SDS011;64406;50.024;14.492;2023-06-24T02:56:06;5.40;;;3.55;;
75787;SDS011;64406;50.024;14.492;2023-06-24T02:58:33;5.38;;;3.88;;
75787;SDS011;64406;50.024;14.492;2023-06-24T03:01:03;6.20;;;4.35;;
75787;SDS011;64406;50.024;14.492;2023-06-24T03:03:33;4.78;;;3.60;;
75787;SDS011;64406;50.024;14.492;2023-06-24T03:06:00;4.38;;;3.92;;
75787;SDS011;64406;50.024;14.492;2023-06-24T03:08:27;4.68;;;3.58;;
75787;SDS011;64406;50.024;14.492;2023-06-24T03:10:54;6.18;;;3.63;;
75787;SDS011;64406;50.024;14.492;2023-06-24T03:13:23;5.53;;;3.90;;
75787;SDS011;64406;50.024;14.492;2023-06-24T03:15:50;4.35;;;3.67;;
75787;SDS011;64406;50.024;14.492;2023-06-24T03:18:16;5.80;;;3.50;;
75787;SDS011;64406;50.024;14.492;2023-06-24T03:20:42;5.50;;;3.72;;
75787;SDS011;64406;50.024;14.492;2023-06-24T03:23:08;9.00;;;3.83;;
75787;SDS011;64406;50.024;14.492;2023-06-24T03:25:34;5.65;;;4.20;;
75787;SDS011;64406;50.024;14.492;2023-06-24T03:28:01;4.47;;;3.30;;
75787;SDS011;64406;50.024;14.492;2023-06-24T03:30:29;6.40;;;3.05;;
75787;SDS011;64406;50.024;14.492;2023-06-24T03:32:55;3.97;;;3.00;;
75787;SDS011;64406;50.024;14.492;2023-06-24T03:35:22;4.80;;;3.53;;
75787;SDS011;64406;50.024;14.492;2023-06-24T03:37:49;5.43;;;3.70;;
75787;SDS011;64406;50.024;14.492;2023-06-24T03:40:15;4.82;;;3.15;;
75787;SDS011;64406;50.024;14.492;2023-06-24T03:42:40;4.20;;;3.35;;
75787;SDS011;64406;50.024;14.492;2023-06-24T03:45:06;5.75;;;3.42;;
75787;SDS011;64406;50.024;14.492;2023-06-24T03:47:32;3.88;;;3.08;;
75787;SDS011;64406;50.024;14.492;2023-06-24T03:49:58;5.13;;;3.72;;
75787;SDS011;64406;50.024;14.492;2023-06-24T03:52:23;5.45;;;3.30;;
75787;SDS011;64406;50.024;14.492;2023-06-24T03:54:50;5.38;;;3.13;;
75787;SDS011;64406;50.024;14.492;2023-06-24T03:57:16;7.90;;;3.60;;
75787;SDS011;64406;50.024;14.492;2023-06-24T03:59:42;6.15;;;3.28;;
75787;SDS011;64406;50.024;14.492;2023-06-24T04:02:07;4.00;;;3.50;;
75787;SDS011;64406;50.024;14.492;2023-06-24T04:04:34;4.47;;;3.47;;
75787;SDS011;64406;50.024;14.492;2023-06-24T04:07:02;4.95;;;3.78;;
75787;SDS011;64406;50.024;14.492;2023-06-24T04:09:34;8.85;;;4.28;;
75787;SDS011;64406;50.024;14.492;2023-06-24T04:12:00;5.38;;;4.32;;
75787;SDS011;64406;50.024;14.492;2023-06-24T04:14:27;5.00;;;3.72;;
75787;SDS011;64406;50.024;14.492;2023-06-24T04:16:53;6.43;;;3.42;;
75787;SDS011;64406;50.024;14.492;2023-06-24T04:19:19;7.15;;;4.30;;
75787;SDS011;64406;50.024;14.492;2023-06-24T04:21:45;6.13;;;4.07;;
75787;SDS011;64406;50.024;14.492;2023-06-24T04:24:10;7.00;;;4.28;;
75787;SDS011;64406;50.024;14.492;2023-06-24T04:26:36;5.55;;;4.03;;
75787;SDS011;64406;50.024;14.492;2023-06-24T04:29:01;7.97;;;4.18;;
75787;SDS011;64406;50.024;14.492;2023-06-24T04:31:27;7.95;;;4.40;;
75787;SDS011;64406;50.024;14.492;2023-06-24T04:33:53;6.10;;;4.65;;
75787;SDS011;64406;50.024;14.492;2023-06-24T04:36:19;6.25;;;4.78;;
75787;SDS011;64406;50.024;14.492;2023-06-24T04:38:45;10.38;;;4.82;;
75787;SDS011;64406;50.024;14.492;2023-06-24T04:41:10;6.88;;;4.30;;
75787;SDS011;64406;50.024;14.492;2023-06-24T04:43:36;7.63;;;4.57;;
75787;SDS011;64406;50.024;14.492;2023-06-24T04:46:02;7.30;;;4.82;;
75787;SDS011;64406;50.024;14.492;2023-06-24T04:48:27;7.70;;;4.78;;
75787;SDS011;64406;50.024;14.492;2023-06-24T04:50:53;8.07;;;5.47;;
75787;SDS011;64406;50.024;14.492;2023-06-24T04:53:20;7.10;;;5.00;;
75787;SDS011;64406;50.024;14.492;2023-06-24T04:55:46;8.35;;;4.95;;
75787;SDS011;64406;50.024;14.492;2023-06-24T04:58:12;8.30;;;5.15;;
75787;SDS011;64406;50.024;14.492;2023-06-24T05:00:38;9.32;;;5.13;;
75787;SDS011;64406;50.024;14.492;2023-06-24T05:03:03;7.68;;;5.30;;
75787;SDS011;64406;50.024;14.492;2023-06-24T05:05:29;9.27;;;5.20;;
75787;SDS011;64406;50.024;14.492;2023-06-24T05:07:55;7.90;;;5.32;;
75787;SDS011;64406;50.024;14.492;2023-06-24T05:10:21;7.00;;;5.10;;
75787;SDS011;64406;50.024;14.492;2023-06-24T05:12:46;9.13;;;6.00;;
75787;SDS011;64406;50.024;14.492;2023-06-24T05:15:12;6.68;;;5.07;;
75787;SDS011;64406;50.024;14.492;2023-06-24T05:17:38;9.60;;;5.82;;
75787;SDS011;64406;50.024;14.492;2023-06-24T05:20:05;9.65;;;5.82;;
75787;SDS011;64406;50.024;14.492;2023-06-24T05:22:31;13.15;;;6.03;;
75787;SDS011;64406;50.024;14.492;2023-06-24T05:24:57;9.48;;;6.43;;
75787;SDS011;64406;50.024;14.492;2023-06-24T05:27:22;8.55;;;6.03;;
75787;SDS011;64406;50.024;14.492;2023-06-24T05:29:48;7.80;;;5.45;;
75787;SDS011;64406;50.024;14.492;2023-06-24T05:32:14;7.88;;;5.60;;
75787;SDS011;64406;50.024;14.492;2023-06-24T05:34:42;8.85;;;6.07;;
75787;SDS011;64406;50.024;14.492;2023-06-24T05:37:08;8.13;;;6.30;;
75787;SDS011;64406;50.024;14.492;2023-06-24T05:39:34;9.43;;;5.78;;
75787;SDS011;64406;50.024;14.492;2023-06-24T05:41:59;7.50;;;5.25;;
75787;SDS011;64406;50.024;14.492;2023-06-24T05:44:25;9.70;;;6.00;;
75787;SDS011;64406;50.024;14.492;2023-06-24T05:46:51;8.75;;;5.80;;
75787;SDS011;64406;50.024;14.492;2023-06-24T05:49:16;10.30;;;6.32;;
75787;SDS011;64406;50.024;14.492;2023-06-24T05:51:42;9.13;;;6.18;;
75787;SDS011;64406;50.024;14.492;2023-06-24T05:54:07;8.82;;;6.22;;
75787;SDS011;64406;50.024;14.492;2023-06-24T05:56:33;14.73;;;7.15;;
75787;SDS011;64406;50.024;14.492;2023-06-24T05:58:59;10.52;;;6.18;;
75787;SDS011;64406;50.024;14.492;2023-06-24T06:01:25;8.52;;;5.63;;
75787;SDS011;64406;50.024;14.492;2023-06-24T06:03:51;8.38;;;5.85;;
75787;SDS011;64406;50.024;14.492;2023-06-24T06:06:16;9.98;;;6.00;;
75787;SDS011;64406;50.024;14.492;2023-06-24T06:08:42;11.30;;;6.65;;
75787;SDS011;64406;50.024;14.492;2023-06-24T06:11:08;9.00;;;5.85;;
75787;SDS011;64406;50.024;14.492;2023-06-24T06:13:33;8.02;;;5.18;;
75787;SDS011;64406;50.024;14.492;2023-06-24T06:15:59;9.07;;;6.38;;
75787;SDS011;64406;50.024;14.492;2023-06-24T06:18:24;9.75;;;6.60;;
75787;SDS011;64406;50.024;14.492;2023-06-24T06:20:50;11.82;;;7.20;;
75787;SDS011;64406;50.024;14.492;2023-06-24T06:23:16;9.27;;;6.65;;
75787;SDS011;64406;50.024;14.492;2023-06-24T06:25:42;8.48;;;5.68;;
75787;SDS011;64406;50.024;14.492;2023-06-24T06:28:08;10.75;;;7.55;;
75787;SDS011;64406;50.024;14.492;2023-06-24T06:30:34;10.93;;;7.25;;
75787;SDS011;64406;50.024;14.492;2023-06-24T06:32:59;11.77;;;6.60;;
75787;SDS011;64406;50.024;14.492;2023-06-24T06:35:25;11.18;;;7.18;;
75787;SDS011;64406;50.024;14.492;2023-06-24T06:37:51;10.15;;;7.57;;
75787;SDS011;64406;50.024;14.492;2023-06-24T06:40:18;11.73;;;7.43;;
75787;SDS011;64406;50.024;14.492;2023-06-24T06:42:45;11.82;;;8.57;;
75787;SDS011;64406;50.024;14.492;2023-06-24T06:45:11;13.27;;;7.53;;
75787;SDS011;64406;50.024;14.492;2023-06-24T06:47:37;11.25;;;7.93;;
75787;SDS011;64406;50.024;14.492;2023-06-24T06:50:02;9.85;;;8.27;;
75787;SDS011;64406;50.024;14.492;2023-06-24T06:52:28;12.43;;;8.88;;
75787;SDS011;64406;50.024;14.492;2023-06-24T06:54:54;12.15;;;8.35;;
75787;SDS011;64406;50.024;14.492;2023-06-24T06:57:20;13.02;;;8.82;;
75787;SDS011;64406;50.024;14.492;2023-06-24T06:59:46;14.48;;;9.35;;
75787;SDS011;64406;50.024;14.492;2023-06-24T07:02:11;15.05;;;9.95;;
75787;SDS011;64406;50.024;14.492;2023-06-24T07:04:37;14.27;;;9.98;;
75787;SDS011;64406;50.024;14.492;2023-06-24T07:07:03;17.13;;;10.35;;
75787;SDS011;64406;50.024;14.492;2023-06-24T07:09:29;16.02;;;11.23;;
75787;SDS011;64406;50.024;14.492;2023-06-24T07:11:54;15.68;;;11.05;;
75787;SDS011;64406;50.024;14.492;2023-06-24T07:14:20;16.73;;;12.32;;
75787;SDS011;64406;50.024;14.492;2023-06-24T07:16:45;16.15;;;11.80;;
75787;SDS011;64406;50.024;14.492;2023-06-24T07:19:11;18.00;;;13.27;;
75787;SDS011;64406;50.024;14.492;2023-06-24T07:21:37;18.00;;;13.15;;
75787;SDS011;64406;50.024;14.492;2023-06-24T07:24:03;17.73;;;12.90;;
75787;SDS011;64406;50.024;14.492;2023-06-24T07:26:29;20.52;;;15.38;;
75787;SDS011;64406;50.024;14.492;2023-06-24T07:28:58;17.73;;;13.10;;
75787;SDS011;64406;50.024;14.492;2023-06-24T07:31:24;20.55;;;14.27;;
75787;SDS011;64406;50.024;14.492;2023-06-24T07:33:50;22.33;;;15.85;;
75787;SDS011;64406;50.024;14.492;2023-06-24T07:36:16;20.60;;;15.10;;
75787;SDS011;64406;50.024;14.492;2023-06-24T07:38:41;21.42;;;14.20;;
75787;SDS011;64406;50.024;14.492;2023-06-24T07:41:07;21.05;;;15.30;;
75787;SDS011;64406;50.024;14.492;2023-06-24T07:43:33;21.00;;;15.68;;
75787;SDS011;64406;50.024;14.492;2023-06-24T07:45:59;20.40;;;14.70;;
75787;SDS011;64406;50.024;14.492;2023-06-24T07:48:25;19.52;;;14.73;;
75787;SDS011;64406;50.024;14.492;2023-06-24T07:50:50;20.73;;;15.20;;
75787;SDS011;64406;50.024;14.492;2023-06-24T07:53:16;18.08;;;14.55;;
75787;SDS011;64406;50.024;14.492;2023-06-24T07:55:41;19.40;;;14.40;;
75787;SDS011;64406;50.024;14.492;2023-06-24T07:58:07;18.92;;;14.25;;
75787;SDS011;64406;50.024;14.492;2023-06-24T08:00:33;17.75;;;13.15;;
75787;SDS011;64406;50.024;14.492;2023-06-24T08:02:59;18.98;;;13.57;;
75787;SDS011;64406;50.024;14.492;2023-06-24T08:05:24;18.25;;;13.00;;
75787;SDS011;64406;50.024;14.492;2023-06-24T08:07:51;16.17;;;12.88;;
75787;SDS011;64406;50.024;14.492;2023-06-24T08:10:17;15.90;;;12.73;;
75787;SDS011;64406;50.024;14.492;2023-06-24T08:12:43;16.27;;;13.00;;
75787;SDS011;64406;50.024;14.492;2023-06-24T08:15:09;13.82;;;12.25;;
75787;SDS011;64406;50.024;14.492;2023-06-24T08:17:35;17.13;;;13.77;;
75787;SDS011;64406;50.024;14.492;2023-06-24T08:20:01;17.25;;;13.73;;
75787;SDS011;64406;50.024;14.492;2023-06-24T08:22:28;15.68;;;12.10;;
75787;SDS011;64406;50.024;14.492;2023-06-24T08:24:54;14.60;;;11.35;;
75787;SDS011;64406;50.024;14.492;2023-06-24T08:27:19;13.60;;;10.80;;
75787;SDS011;64406;50.024;14.492;2023-06-24T08:29:45;15.00;;;12.02;;
75787;SDS011;64406;50.024;14.492;2023-06-24T08:32:11;14.82;;;10.85;;
75787;SDS011;64406;50.024;14.492;2023-06-24T08:34:36;12.55;;;10.18;;
75787;SDS011;64406;50.024;14.492;2023-06-24T08:37:02;11.45;;;10.25;;
75787;SDS011;64406;50.024;14.492;2023-06-24T08:39:28;10.02;;;8.85;;
75787;SDS011;64406;50.024;14.492;2023-06-24T08:41:54;12.88;;;10.63;;
75787;SDS011;64406;50.024;14.492;2023-06-24T08:44:20;12.20;;;10.50;;
75787;SDS011;64406;50.024;14.492;2023-06-24T08:46:45;10.70;;;9.57;;
75787;SDS011;64406;50.024;14.492;2023-06-24T08:51:48;13.50;;;9.60;;
75787;SDS011;64406;50.024;14.492;2023-06-24T08:54:16;9.93;;;8.93;;
75787;SDS011;64406;50.024;14.492;2023-06-24T08:56:45;11.57;;;9.63;;
75787;SDS011;64406;50.024;14.492;2023-06-24T08:59:11;10.43;;;8.68;;
75787;SDS011;64406;50.024;14.492;2023-06-24T09:01:36;10.57;;;8.38;;
75787;SDS011;64406;50.024;14.492;2023-06-24T09:04:02;9.13;;;7.72;;
75787;SDS011;64406;50.024;14.492;2023-06-24T09:06:29;8.68;;;7.78;;
75787;SDS011;64406;50.024;14.492;2023-06-24T09:08:57;11.77;;;8.27;;
75787;SDS011;64406;50.024;14.492;2023-06-24T09:11:23;8.93;;;7.55;;
75787;SDS011;64406;50.024;14.492;2023-06-24T09:13:53;9.85;;;7.35;;
75787;SDS011;64406;50.024;14.492;2023-06-24T09:16:20;8.10;;;7.30;;
75787;SDS011;64406;50.024;14.492;2023-06-24T09:18:49;11.32;;;7.05;;
75787;SDS011;64406;50.024;14.492;2023-06-24T09:21:25;10.18;;;6.82;;
75787;SDS011;64406;50.024;14.492;2023-06-24T09:23:54;6.97;;;6.35;;
75787;SDS011;64406;50.024;14.492;2023-06-24T09:26:24;9.25;;;7.20;;
75787;SDS011;64406;50.024;14.492;2023-06-24T09:28:51;7.82;;;6.47;;
75787;SDS011;64406;50.024;14.492;2023-06-24T09:31:17;10.02;;;7.88;;
75787;SDS011;64406;50.024;14.492;2023-06-24T09:33:43;11.52;;;9.95;;
75787;SDS011;64406;50.024;14.492;2023-06-24T09:36:13;13.57;;;10.50;;
75787;SDS011;64406;50.024;14.492;2023-06-24T09:38:41;11.50;;;10.10;;
75787;SDS011;64406;50.024;14.492;2023-06-24T09:41:08;12.00;;;10.80;;
75787;SDS011;64406;50.024;14.492;2023-06-24T09:43:34;11.25;;;9.30;;
75787;SDS011;64406;50.024;14.492;2023-06-24T09:46:01;12.95;;;9.60;;
75787;SDS011;64406;50.024;14.492;2023-06-24T09:48:28;10.57;;;8.82;;
75787;SDS011;64406;50.024;14.492;2023-06-24T09:50:59;10.75;;;9.57;;
75787;SDS011;64406;50.024;14.492;2023-06-24T09:53:28;10.88;;;9.57;;
75787;SDS011;64406;50.024;14.492;2023-06-24T09:55:55;12.00;;;8.45;;
75787;SDS011;64406;50.024;14.492;2023-06-24T09:58:22;9.07;;;7.75;;
75787;SDS011;64406;50.024;14.492;2023-06-24T10:00:49;11.15;;;9.27;;
75787;SDS011;64406;50.024;14.492;2023-06-24T10:03:17;9.82;;;8.70;;
75787;SDS011;64406;50.024;14.492;2023-06-24T10:05:43;8.65;;;7.47;;
75787;SDS011;64406;50.024;14.492;2023-06-24T10:08:09;9.40;;;7.32;;
75787;SDS011;64406;50.024;14.492;2023-06-24T10:10:36;9.40;;;7.72;;
75787;SDS011;64406;50.024;14.492;2023-06-24T10:13:01;8.70;;;7.80;;
75787;SDS011;64406;50.024;14.492;2023-06-24T10:15:27;9.82;;;8.00;;
75787;SDS011;64406;50.024;14.492;2023-06-24T10:17:53;10.40;;;9.40;;
75787;SDS011;64406;50.024;14.492;2023-06-24T10:20:25;10.07;;;9.05;;
75787;SDS011;64406;50.024;14.492;2023-06-24T10:22:52;10.68;;;9.45;;
75787;SDS011;64406;50.024;14.492;2023-06-24T10:25:18;13.43;;;9.05;;
75787;SDS011;64406;50.024;14.492;2023-06-24T10:27:43;9.50;;;8.57;;
75787;SDS011;64406;50.024;14.492;2023-06-24T10:30:16;9.73;;;8.18;;
75787;SDS011;64406;50.024;14.492;2023-06-24T10:32:44;9.52;;;8.55;;
75787;SDS011;64406;50.024;14.492;2023-06-24T10:35:28;10.13;;;9.13;;
75787;SDS011;64406;50.024;14.492;2023-06-24T10:37:58;14.88;;;9.32;;
75787;SDS011;64406;50.024;14.492;2023-06-24T10:40:34;11.43;;;8.77;;
75787;SDS011;64406;50.024;14.492;2023-06-24T10:43:04;10.82;;;9.73;;
75787;SDS011;64406;50.024;14.492;2023-06-24T10:45:50;16.83;;;9.75;;
75787;SDS011;64406;50.024;14.492;2023-06-24T10:48:17;9.60;;;8.70;;
75787;SDS011;64406;50.024;14.492;2023-06-24T10:50:46;9.52;;;8.40;;
75787;SDS011;64406;50.024;14.492;2023-06-24T10:53:13;9.23;;;7.55;;
75787;SDS011;64406;50.024;14.492;2023-06-24T10:55:38;9.52;;;7.72;;
75787;SDS011;64406;50.024;14.492;2023-06-24T10:58:11;10.10;;;7.13;;
75787;SDS011;64406;50.024;14.492;2023-06-24T11:00:39;7.30;;;6.30;;
75787;SDS011;64406;50.024;14.492;2023-06-24T11:03:09;7.20;;;6.50;;
75787;SDS011;64406;50.024;14.492;2023-06-24T11:05:44;8.73;;;7.40;;
75787;SDS011;64406;50.024;14.492;2023-06-24T11:08:11;9.35;;;8.15;;
75787;SDS011;64406;50.024;14.492;2023-06-24T11:10:47;8.77;;;7.25;;
75787;SDS011;64406;50.024;14.492;2023-06-24T11:13:14;9.07;;;7.30;;
75787;SDS011;64406;50.024;14.492;2023-06-24T11:15:40;8.65;;;7.75;;
75787;SDS011;64406;50.024;14.492;2023-06-24T11:18:10;8.30;;;7.13;;
75787;SDS011;64406;50.024;14.492;2023-06-24T11:20:39;10.18;;;6.93;;
75787;SDS011;64406;50.024;14.492;2023-06-24T11:23:08;6.90;;;6.20;;
75787;SDS011;64406;50.024;14.492;2023-06-24T11:25:38;8.02;;;6.97;;
75787;SDS011;64406;50.024;14.492;2023-06-24T11:28:11;10.52;;;7.63;;
75787;SDS011;64406;50.024;14.492;2023-06-24T11:30:38;8.57;;;6.80;;
75787;SDS011;64406;50.024;14.492;2023-06-24T11:33:03;8.15;;;6.72;;
75787;SDS011;64406;50.024;14.492;2023-06-24T11:35:29;7.30;;;6.30;;
75787;SDS011;64406;50.024;14.492;2023-06-24T11:37:57;8.45;;;6.00;;
75787;SDS011;64406;50.024;14.492;2023-06-24T11:40:23;8.02;;;6.45;;
75787;SDS011;64406;50.024;14.492;2023-06-24T11:42:49;9.48;;;6.10;;
75787;SDS011;64406;50.024;14.492;2023-06-24T11:45:19;8.38;;;6.60;;
75787;SDS011;64406;50.024;14.492;2023-06-24T11:47:45;8.20;;;6.25;;
75787;SDS011;64406;50.024;14.492;2023-06-24T11:50:11;6.80;;;6.07;;
75787;SDS011;64406;50.024;14.492;2023-06-24T12:00:31;6.35;;;5.50;;
75787;SDS011;64406;50.024;14.492;2023-06-24T12:03:01;6.57;;;5.20;;
75787;SDS011;64406;50.024;14.492;2023-06-24T12:05:33;7.45;;;5.60;;
75787;SDS011;64406;50.024;14.492;2023-06-24T12:08:01;6.25;;;5.30;;
75787;SDS011;64406;50.024;14.492;2023-06-24T12:10:28;5.70;;;5.13;;
75787;SDS011;64406;50.024;14.492;2023-06-24T12:12:58;7.00;;;5.68;;
75787;SDS011;64406;50.024;14.492;2023-06-24T12:15:24;6.60;;;5.70;;
75787;SDS011;64406;50.024;14.492;2023-06-24T12:17:49;7.88;;;5.32;;
75787;SDS011;64406;50.024;14.492;2023-06-24T12:20:15;6.10;;;5.50;;
75787;SDS011;64406;50.024;14.492;2023-06-24T12:22:42;6.07;;;5.47;;
75787;SDS011;64406;50.024;14.492;2023-06-24T12:25:08;6.03;;;5.22;;
75787;SDS011;64406;50.024;14.492;2023-06-24T12:27:34;6.13;;;5.15;;
75787;SDS011;64406;50.024;14.492;2023-06-24T12:30:00;5.90;;;4.60;;
75787;SDS011;64406;50.024;14.492;2023-06-24T12:32:26;6.55;;;5.05;;
75787;SDS011;64406;50.024;14.492;2023-06-24T12:34:52;6.38;;;4.93;;
75787;SDS011;64406;50.024;14.492;2023-06-24T12:37:18;6.32;;;4.93;;
75787;SDS011;64406;50.024;14.492;2023-06-24T12:39:44;6.32;;;4.45;;
75787;SDS011;64406;50.024;14.492;2023-06-24T12:42:10;4.53;;;4.13;;
75787;SDS011;64406;50.024;14.492;2023-06-24T12:44:35;5.20;;;4.68;;
75787;SDS011;64406;50.024;14.492;2023-06-24T12:47:01;5.13;;;4.45;;
75787;SDS011;64406;50.024;14.492;2023-06-24T12:49:27;5.43;;;4.13;;
75787;SDS011;64406;50.024;14.492;2023-06-24T12:51:53;4.43;;;4.00;;
75787;SDS011;64406;50.024;14.492;2023-06-24T12:54:19;4.70;;;4.20;;
75787;SDS011;64406;50.024;14.492;2023-06-24T12:56:44;3.78;;;3.47;;
75787;SDS011;64406;50.024;14.492;2023-06-24T12:59:10;4.78;;;4.28;;
75787;SDS011;64406;50.024;14.492;2023-06-24T13:01:36;4.80;;;4.40;;
75787;SDS011;64406;50.024;14.492;2023-06-24T13:04:01;3.92;;;3.63;;
75787;SDS011;64406;50.024;14.492;2023-06-24T13:06:27;4.30;;;3.92;;
75787;SDS011;64406;50.024;14.492;2023-06-24T13:08:52;4.10;;;3.72;;
75787;SDS011;64406;50.024;14.492;2023-06-24T13:11:18;4.60;;;4.20;;
75787;SDS011;64406;50.024;14.492;2023-06-24T13:13:44;4.93;;;4.53;;
75787;SDS011;64406;50.024;14.492;2023-06-24T13:16:10;6.00;;;4.45;;
75787;SDS011;64406;50.024;14.492;2023-06-24T13:18:35;4.78;;;4.35;;
75787;SDS011;64406;50.024;14.492;2023-06-24T13:21:01;4.70;;;4.30;;
75787;SDS011;64406;50.024;14.492;2023-06-24T13:23:27;4.72;;;4.20;;
75787;SDS011;64406;50.024;14.492;2023-06-24T13:25:53;4.70;;;4.30;;
75787;SDS011;64406;50.024;14.492;2023-06-24T13:28:19;4.57;;;4.18;;
75787;SDS011;64406;50.024;14.492;2023-06-24T13:30:44;4.47;;;4.07;;
75787;SDS011;64406;50.024;14.492;2023-06-24T13:33:10;4.85;;;3.88;;
75787;SDS011;64406;50.024;14.492;2023-06-24T13:35:36;5.13;;;4.30;;
75787;SDS011;64406;50.024;14.492;2023-06-24T13:38:01;5.53;;;4.40;;
75787;SDS011;64406;50.024;14.492;2023-06-24T13:40:27;4.05;;;3.67;;
75787;SDS011;64406;50.024;14.492;2023-06-24T13:42:52;4.40;;;4.00;;
75787;SDS011;64406;50.024;14.492;2023-06-24T13:45:18;5.38;;;4.10;;
75787;SDS011;64406;50.024;14.492;2023-06-24T13:47:44;4.50;;;4.10;;
75787;SDS011;64406;50.024;14.492;2023-06-24T13:50:10;5.28;;;4.30;;
75787;SDS011;64406;50.024;14.492;2023-06-24T13:52:36;4.30;;;3.92;;
75787;SDS011;64406;50.024;14.492;2023-06-24T13:55:02;5.88;;;4.38;;
75787;SDS011;64406;50.024;14.492;2023-06-24T13:57:28;4.85;;;4.32;;
75787;SDS011;64406;50.024;14.492;2023-06-24T13:59:54;5.13;;;4.57;;
75787;SDS011;64406;50.024;14.492;2023-06-24T14:02:19;4.82;;;4.43;;
75787;SDS011;64406;50.024;14.492;2023-06-24T14:04:45;5.45;;;4.38;;
75787;SDS011;64406;50.024;14.492;2023-06-24T14:07:11;4.95;;;4.38;;
75787;SDS011;64406;50.024;14.492;2023-06-24T14:09:37;4.68;;;4.28;;
75787;SDS011;64406;50.024;14.492;2023-06-24T14:12:04;4.50;;;4.10;;
75787;SDS011;64406;50.024;14.492;2023-06-24T14:14:30;4.82;;;4.32;;
75787;SDS011;64406;50.024;14.492;2023-06-24T14:16:55;4.47;;;4.07;;
75787;SDS011;64406;50.024;14.492;2023-06-24T14:19:21;5.32;;;4.82;;
75787;SDS011;64406;50.024;14.492;2023-06-24T14:21:47;5.05;;;4.55;;
75787;SDS011;64406;50.024;14.492;2023-06-24T14:24:13;4.57;;;4.18;;
75787;SDS011;64406;50.024;14.492;2023-06-24T14:26:38;6.68;;;4.78;;
75787;SDS011;64406;50.024;14.492;2023-06-24T14:29:04;5.03;;;4.53;;
75787;SDS011;64406;50.024;14.492;2023-06-24T14:31:30;5.75;;;5.15;;
75787;SDS011;64406;50.024;14.492;2023-06-24T14:33:55;5.32;;;4.82;;
75787;SDS011;64406;50.024;14.492;2023-06-24T14:36:21;5.45;;;4.95;;
75787;SDS011;64406;50.024;14.492;2023-06-24T14:38:47;5.43;;;4.90;;
75787;SDS011;64406;50.024;14.492;2023-06-24T14:41:12;6.07;;;5.22;;
75787;SDS011;64406;50.024;14.492;2023-06-24T14:43:38;6.75;;;5.10;;
75787;SDS011;64406;50.024;14.492;2023-06-24T14:46:04;6.28;;;5.65;;
75787;SDS011;64406;50.024;14.492;2023-06-24T14:48:29;5.53;;;5.03;;
75787;SDS011;64406;50.024;14.492;2023-06-24T14:50:55;8.25;;;5.07;;
75787;SDS011;64406;50.024;14.492;2023-06-24T14:53:21;5.88;;;5.28;;